sensor_id;sensor_type;location;lat;lon;timestamp;temperature;humidity
6581;DHT22;3324;50.796;7.228;2022-07-12T00:02:04;16.40;99.90
6581;DHT22;3324;50.796;7.228;2022-07-12T00:04:30;16.40;99.90
6581;DHT22;3324;50.796;7.228;2022-07-12T00:06:56;16.40;99.90
6581;DHT22;3324;50.796;7.228;2022-07-12T00:09:21;16.40;99.90
6581;DHT22;3324;50.796;7.228;2022-07-12T00:11:47;16.40;99.90
6581;DHT22;3324;50.796;7.228;2022-07-12T00:14:13;16.30;99.90
6581;DHT22;3324;50.796;7.228;2022-07-12T00:16:39;16.30;99.90
6581;DHT22;3324;50.796;7.228;2022-07-12T00:19:04;16.20;99.90
6581;DHT22;3324;50.796;7.228;2022-07-12T00:21:30;16.20;99.90
6581;DHT22;3324;50.796;7.228;2022-07-12T00:23:56;16.20;99.90
6581;DHT22;3324;50.796;7.228;2022-07-12T00:26:21;16.10;99.90
6581;DHT22;3324;50.796;7.228;2022-07-12T00:28:48;16.10;99.90
6581;DHT22;3324;50.796;7.228;2022-07-12T00:31:14;16.10;99.90
6581;DHT22;3324;50.796;7.228;2022-07-12T00:33:40;16.00;99.90
6581;DHT22;3324;50.796;7.228;2022-07-12T00:36:05;16.00;99.90
6581;DHT22;3324;50.796;7.228;2022-07-12T00:38:31;16.00;99.90
6581;DHT22;3324;50.796;7.228;2022-07-12T00:40:57;16.00;99.90
6581;DHT22;3324;50.796;7.228;2022-07-12T00:43:23;15.90;99.90
6581;DHT22;3324;50.796;7.228;2022-07-12T00:45:48;15.90;99.90
6581;DHT22;3324;50.796;7.228;2022-07-12T00:48:15;15.80;99.90
6581;DHT22;3324;50.796;7.228;2022-07-12T00:50:44;15.80;99.90
6581;DHT22;3324;50.796;7.228;2022-07-12T00:53:10;15.80;99.90
6581;DHT22;3324;50.796;7.228;2022-07-12T00:55:36;15.70;99.90
6581;DHT22;3324;50.796;7.228;2022-07-12T00:58:01;15.70;99.90
6581;DHT22;3324;50.796;7.228;2022-07-12T01:00:28;15.70;99.90
6581;DHT22;3324;50.796;7.228;2022-07-12T01:02:55;15.70;99.90
6581;DHT22;3324;50.796;7.228;2022-07-12T01:05:21;15.60;99.90
6581;DHT22;3324;50.796;7.228;2022-07-12T01:07:48;15.60;99.90
6581;DHT22;3324;50.796;7.228;2022-07-12T01:10:14;15.70;99.90
6581;DHT22;3324;50.796;7.228;2022-07-12T01:12:40;15.60;99.90
6581;DHT22;3324;50.796;7.228;2022-07-12T01:15:07;15.60;99.90
6581;DHT22;3324;50.796;7.228;2022-07-12T01:17:33;15.60;99.90
6581;DHT22;3324;50.796;7.228;2022-07-12T01:19:59;15.60;99.90
6581;DHT22;3324;50.796;7.228;2022-07-12T01:22:31;15.60;99.90
6581;DHT22;3324;50.796;7.228;2022-07-12T01:24:57;15.50;99.90
6581;DHT22;3324;50.796;7.228;2022-07-12T01:27:23;15.50;99.90
6581;DHT22;3324;50.796;7.228;2022-07-12T01:29:49;15.50;99.90
6581;DHT22;3324;50.796;7.228;2022-07-12T01:32:15;15.40;99.90
6581;DHT22;3324;50.796;7.228;2022-07-12T01:34:54;15.30;99.90
6581;DHT22;3324;50.796;7.228;2022-07-12T01:37:22;15.30;99.90
6581;DHT22;3324;50.796;7.228;2022-07-12T01:39:53;15.30;99.90
6581;DHT22;3324;50.796;7.228;2022-07-12T01:42:20;15.20;99.90
6581;DHT22;3324;50.796;7.228;2022-07-12T01:44:48;15.20;99.90
6581;DHT22;3324;50.796;7.228;2022-07-12T01:47:13;15.20;99.90
6581;DHT22;3324;50.796;7.228;2022-07-12T01:49:39;15.20;99.90
6581;DHT22;3324;50.796;7.228;2022-07-12T01:52:05;15.10;99.90
6581;DHT22;3324;50.796;7.228;2022-07-12T01:54:31;15.10;99.90
6581;DHT22;3324;50.796;7.228;2022-07-12T01:56:56;15.00;99.90
6581;DHT22;3324;50.796;7.228;2022-07-12T01:59:22;15.00;99.90
6581;DHT22;3324;50.796;7.228;2022-07-12T02:01:48;15.00;99.90
6581;DHT22;3324;50.796;7.228;2022-07-12T02:04:18;15.00;99.90
6581;DHT22;3324;50.796;7.228;2022-07-12T02:06:48;15.00;99.90
6581;DHT22;3324;50.796;7.228;2022-07-12T02:09:14;14.90;99.90
6581;DHT22;3324;50.796;7.228;2022-07-12T02:11:41;14.90;99.90
6581;DHT22;3324;50.796;7.228;2022-07-12T02:14:07;14.90;99.90
6581;DHT22;3324;50.796;7.228;2022-07-12T02:16:33;14.90;99.90
6581;DHT22;3324;50.796;7.228;2022-07-12T02:18:59;14.90;99.90
6581;DHT22;3324;50.796;7.228;2022-07-12T02:21:25;14.90;99.90
6581;DHT22;3324;50.796;7.228;2022-07-12T02:23:51;14.80;99.90
6581;DHT22;3324;50.796;7.228;2022-07-12T02:26:16;14.80;99.90
6581;DHT22;3324;50.796;7.228;2022-07-12T02:28:42;14.80;99.90
6581;DHT22;3324;50.796;7.228;2022-07-12T02:31:08;14.70;99.90
6581;DHT22;3324;50.796;7.228;2022-07-12T02:33:34;14.70;99.90
6581;DHT22;3324;50.796;7.228;2022-07-12T02:36:00;14.70;99.90
6581;DHT22;3324;50.796;7.228;2022-07-12T02:38:25;14.70;99.90
6581;DHT22;3324;50.796;7.228;2022-07-12T02:40:51;14.70;99.90
6581;DHT22;3324;50.796;7.228;2022-07-12T02:43:24;14.50;99.90
6581;DHT22;3324;50.796;7.228;2022-07-12T02:45:50;14.50;99.90
6581;DHT22;3324;50.796;7.228;2022-07-12T02:48:16;14.50;99.90
6581;DHT22;3324;50.796;7.228;2022-07-12T02:50:43;14.40;99.90
6581;DHT22;3324;50.796;7.228;2022-07-12T02:53:09;14.50;99.90
6581;DHT22;3324;50.796;7.228;2022-07-12T02:55:35;14.40;99.90
6581;DHT22;3324;50.796;7.228;2022-07-12T02:58:02;14.50;99.90
6581;DHT22;3324;50.796;7.228;2022-07-12T03:00:28;14.40;99.90
6581;DHT22;3324;50.796;7.228;2022-07-12T03:02:54;14.40;99.90
6581;DHT22;3324;50.796;7.228;2022-07-12T03:05:19;14.40;99.90
6581;DHT22;3324;50.796;7.228;2022-07-12T03:07:45;14.40;99.90
6581;DHT22;3324;50.796;7.228;2022-07-12T03:10:11;14.40;99.90
6581;DHT22;3324;50.796;7.228;2022-07-12T03:12:37;14.50;99.90
6581;DHT22;3324;50.796;7.228;2022-07-12T03:15:04;14.40;99.90
6581;DHT22;3324;50.796;7.228;2022-07-12T03:17:31;14.40;99.90
6581;DHT22;3324;50.796;7.228;2022-07-12T03:19:57;14.40;99.90
6581;DHT22;3324;50.796;7.228;2022-07-12T03:22:22;14.40;99.90
6581;DHT22;3324;50.796;7.228;2022-07-12T03:24:48;14.40;99.90
6581;DHT22;3324;50.796;7.228;2022-07-12T03:27:14;14.30;99.90
6581;DHT22;3324;50.796;7.228;2022-07-12T03:29:39;14.30;99.90
6581;DHT22;3324;50.796;7.228;2022-07-12T03:32:06;14.30;99.90
6581;DHT22;3324;50.796;7.228;2022-07-12T03:34:32;14.30;99.90
6581;DHT22;3324;50.796;7.228;2022-07-12T03:36:58;14.30;99.90
6581;DHT22;3324;50.796;7.228;2022-07-12T03:39:23;14.30;99.90
6581;DHT22;3324;50.796;7.228;2022-07-12T03:41:49;14.20;99.90
6581;DHT22;3324;50.796;7.228;2022-07-12T03:44:15;14.10;99.90
6581;DHT22;3324;50.796;7.228;2022-07-12T03:46:41;14.10;99.90
6581;DHT22;3324;50.796;7.228;2022-07-12T03:49:06;14.10;99.90
6581;DHT22;3324;50.796;7.228;2022-07-12T03:51:32;14.10;99.90
6581;DHT22;3324;50.796;7.228;2022-07-12T03:53:58;14.10;99.90
6581;DHT22;3324;50.796;7.228;2022-07-12T03:56:24;14.10;99.90
6581;DHT22;3324;50.796;7.228;2022-07-12T03:59:08;14.10;99.90
6581;DHT22;3324;50.796;7.228;2022-07-12T04:01:34;14.10;99.90
6581;DHT22;3324;50.796;7.228;2022-07-12T04:03:59;14.20;99.90
6581;DHT22;3324;50.796;7.228;2022-07-12T04:06:25;14.20;99.90
6581;DHT22;3324;50.796;7.228;2022-07-12T04:08:50;14.20;99.90
6581;DHT22;3324;50.796;7.228;2022-07-12T04:11:16;14.20;99.90
6581;DHT22;3324;50.796;7.228;2022-07-12T04:13:42;14.20;99.90
6581;DHT22;3324;50.796;7.228;2022-07-12T04:16:08;14.20;99.90
6581;DHT22;3324;50.796;7.228;2022-07-12T04:18:33;14.20;99.90
6581;DHT22;3324;50.796;7.228;2022-07-12T04:20:59;14.20;99.90
6581;DHT22;3324;50.796;7.228;2022-07-12T04:23:25;14.30;99.90
6581;DHT22;3324;50.796;7.228;2022-07-12T04:25:51;14.30;99.90
6581;DHT22;3324;50.796;7.228;2022-07-12T04:28:17;14.30;99.90
6581;DHT22;3324;50.796;7.228;2022-07-12T04:30:43;14.40;99.90
6581;DHT22;3324;50.796;7.228;2022-07-12T04:33:10;14.50;99.90
6581;DHT22;3324;50.796;7.228;2022-07-12T04:35:36;14.60;99.90
6581;DHT22;3324;50.796;7.228;2022-07-12T04:38:02;14.60;99.90
6581;DHT22;3324;50.796;7.228;2022-07-12T04:40:28;14.70;99.90
6581;DHT22;3324;50.796;7.228;2022-07-12T04:42:54;14.80;99.90
6581;DHT22;3324;50.796;7.228;2022-07-12T04:45:20;14.80;99.90
6581;DHT22;3324;50.796;7.228;2022-07-12T04:47:45;14.80;99.90
6581;DHT22;3324;50.796;7.228;2022-07-12T04:50:11;14.90;99.90
6581;DHT22;3324;50.796;7.228;2022-07-12T04:52:37;14.90;99.90
6581;DHT22;3324;50.796;7.228;2022-07-12T04:55:06;15.00;99.90
6581;DHT22;3324;50.796;7.228;2022-07-12T04:57:32;15.00;99.90
6581;DHT22;3324;50.796;7.228;2022-07-12T04:59:58;15.00;99.90
6581;DHT22;3324;50.796;7.228;2022-07-12T05:02:23;15.10;99.90
6581;DHT22;3324;50.796;7.228;2022-07-12T05:04:49;15.20;99.90
6581;DHT22;3324;50.796;7.228;2022-07-12T05:07:15;15.30;99.90
6581;DHT22;3324;50.796;7.228;2022-07-12T05:09:40;15.40;99.90
6581;DHT22;3324;50.796;7.228;2022-07-12T05:12:06;15.40;99.90
6581;DHT22;3324;50.796;7.228;2022-07-12T05:14:32;15.50;99.90
6581;DHT22;3324;50.796;7.228;2022-07-12T05:16:57;15.60;99.90
6581;DHT22;3324;50.796;7.228;2022-07-12T05:19:23;15.70;99.90
6581;DHT22;3324;50.796;7.228;2022-07-12T05:21:49;15.80;99.90
6581;DHT22;3324;50.796;7.228;2022-07-12T05:24:15;16.00;99.90
6581;DHT22;3324;50.796;7.228;2022-07-12T05:26:41;16.10;99.90
6581;DHT22;3324;50.796;7.228;2022-07-12T05:29:07;16.20;99.90
6581;DHT22;3324;50.796;7.228;2022-07-12T05:31:33;16.30;99.90
6581;DHT22;3324;50.796;7.228;2022-07-12T05:33:59;16.40;99.90
6581;DHT22;3324;50.796;7.228;2022-07-12T05:36:25;16.40;99.90
6581;DHT22;3324;50.796;7.228;2022-07-12T05:38:51;16.50;99.90
6581;DHT22;3324;50.796;7.228;2022-07-12T05:41:17;16.50;99.90
6581;DHT22;3324;50.796;7.228;2022-07-12T05:43:43;16.60;99.90
6581;DHT22;3324;50.796;7.228;2022-07-12T05:46:09;16.60;99.90
6581;DHT22;3324;50.796;7.228;2022-07-12T05:48:35;16.70;99.90
6581;DHT22;3324;50.796;7.228;2022-07-12T05:51:01;16.70;99.90
6581;DHT22;3324;50.796;7.228;2022-07-12T05:53:46;16.80;99.90
6581;DHT22;3324;50.796;7.228;2022-07-12T05:56:12;16.90;99.90
6581;DHT22;3324;50.796;7.228;2022-07-12T05:58:38;17.00;99.90
6581;DHT22;3324;50.796;7.228;2022-07-12T06:01:03;17.10;99.90
6581;DHT22;3324;50.796;7.228;2022-07-12T06:03:29;17.30;99.90
6581;DHT22;3324;50.796;7.228;2022-07-12T06:05:55;17.30;99.90
6581;DHT22;3324;50.796;7.228;2022-07-12T06:08:20;17.40;99.90
6581;DHT22;3324;50.796;7.228;2022-07-12T06:10:46;17.50;99.90
6581;DHT22;3324;50.796;7.228;2022-07-12T06:13:12;17.50;99.90
6581;DHT22;3324;50.796;7.228;2022-07-12T06:15:37;17.50;99.90
6581;DHT22;3324;50.796;7.228;2022-07-12T06:18:03;17.60;99.90
6581;DHT22;3324;50.796;7.228;2022-07-12T06:20:29;17.70;99.90
6581;DHT22;3324;50.796;7.228;2022-07-12T06:22:55;17.80;99.90
6581;DHT22;3324;50.796;7.228;2022-07-12T06:25:21;17.90;99.90
6581;DHT22;3324;50.796;7.228;2022-07-12T06:27:48;18.00;99.90
6581;DHT22;3324;50.796;7.228;2022-07-12T06:30:21;18.10;99.90
6581;DHT22;3324;50.796;7.228;2022-07-12T06:32:48;18.20;99.90
6581;DHT22;3324;50.796;7.228;2022-07-12T06:35:14;18.40;99.90
6581;DHT22;3324;50.796;7.228;2022-07-12T06:37:41;18.60;99.90
6581;DHT22;3324;50.796;7.228;2022-07-12T06:40:07;18.60;99.90
6581;DHT22;3324;50.796;7.228;2022-07-12T06:42:33;18.80;99.90
6581;DHT22;3324;50.796;7.228;2022-07-12T06:44:59;18.90;99.90
6581;DHT22;3324;50.796;7.228;2022-07-12T06:47:24;19.10;99.90
6581;DHT22;3324;50.796;7.228;2022-07-12T06:49:51;19.20;99.90
6581;DHT22;3324;50.796;7.228;2022-07-12T06:52:17;19.40;99.90
6581;DHT22;3324;50.796;7.228;2022-07-12T06:54:42;19.50;99.90
6581;DHT22;3324;50.796;7.228;2022-07-12T06:57:08;19.60;99.90
6581;DHT22;3324;50.796;7.228;2022-07-12T06:59:33;19.70;99.90
6581;DHT22;3324;50.796;7.228;2022-07-12T07:01:59;19.80;99.90
6581;DHT22;3324;50.796;7.228;2022-07-12T07:04:25;20.00;99.90
6581;DHT22;3324;50.796;7.228;2022-07-12T07:06:51;20.10;99.90
6581;DHT22;3324;50.796;7.228;2022-07-12T07:09:17;20.20;99.90
6581;DHT22;3324;50.796;7.228;2022-07-12T07:11:43;20.30;99.90
6581;DHT22;3324;50.796;7.228;2022-07-12T07:14:09;20.40;99.90
6581;DHT22;3324;50.796;7.228;2022-07-12T07:16:34;20.60;99.90
6581;DHT22;3324;50.796;7.228;2022-07-12T07:19:00;20.70;99.90
6581;DHT22;3324;50.796;7.228;2022-07-12T07:21:26;20.80;99.90
6581;DHT22;3324;50.796;7.228;2022-07-12T07:23:52;20.80;99.90
6581;DHT22;3324;50.796;7.228;2022-07-12T07:26:18;21.00;99.90
6581;DHT22;3324;50.796;7.228;2022-07-12T07:28:44;21.10;99.90
6581;DHT22;3324;50.796;7.228;2022-07-12T07:31:28;21.20;99.90
6581;DHT22;3324;50.796;7.228;2022-07-12T07:33:54;21.40;99.90
6581;DHT22;3324;50.796;7.228;2022-07-12T07:36:19;21.60;99.90
6581;DHT22;3324;50.796;7.228;2022-07-12T07:38:45;21.70;99.90
6581;DHT22;3324;50.796;7.228;2022-07-12T07:41:11;21.80;99.90
6581;DHT22;3324;50.796;7.228;2022-07-12T07:43:36;21.90;99.90
6581;DHT22;3324;50.796;7.228;2022-07-12T07:46:02;22.00;99.90
6581;DHT22;3324;50.796;7.228;2022-07-12T07:48:28;22.00;99.90
6581;DHT22;3324;50.796;7.228;2022-07-12T07:50:54;22.10;99.90
6581;DHT22;3324;50.796;7.228;2022-07-12T07:53:20;22.00;99.90
6581;DHT22;3324;50.796;7.228;2022-07-12T07:55:46;22.10;99.90
6581;DHT22;3324;50.796;7.228;2022-07-12T07:58:14;22.10;99.90
6581;DHT22;3324;50.796;7.228;2022-07-12T08:00:39;22.30;99.90
6581;DHT22;3324;50.796;7.228;2022-07-12T08:03:05;22.40;99.90
6581;DHT22;3324;50.796;7.228;2022-07-12T08:05:30;22.50;99.90
6581;DHT22;3324;50.796;7.228;2022-07-12T08:07:56;22.60;99.90
6581;DHT22;3324;50.796;7.228;2022-07-12T08:10:22;22.80;99.90
6581;DHT22;3324;50.796;7.228;2022-07-12T08:12:49;22.80;99.90
6581;DHT22;3324;50.796;7.228;2022-07-12T08:15:14;23.00;99.90
6581;DHT22;3324;50.796;7.228;2022-07-12T08:17:40;23.20;99.90
6581;DHT22;3324;50.796;7.228;2022-07-12T08:20:06;23.20;99.90
6581;DHT22;3324;50.796;7.228;2022-07-12T08:22:33;23.20;99.90
6581;DHT22;3324;50.796;7.228;2022-07-12T08:24:59;23.40;99.90
6581;DHT22;3324;50.796;7.228;2022-07-12T08:27:25;23.50;99.90
6581;DHT22;3324;50.796;7.228;2022-07-12T08:29:50;23.60;99.90
6581;DHT22;3324;50.796;7.228;2022-07-12T08:32:16;23.80;99.90
6581;DHT22;3324;50.796;7.228;2022-07-12T08:34:42;24.00;99.90
6581;DHT22;3324;50.796;7.228;2022-07-12T08:37:08;24.10;99.90
6581;DHT22;3324;50.796;7.228;2022-07-12T08:39:33;24.20;99.90
6581;DHT22;3324;50.796;7.228;2022-07-12T08:41:59;24.30;99.90
6581;DHT22;3324;50.796;7.228;2022-07-12T08:44:25;24.50;99.90
6581;DHT22;3324;50.796;7.228;2022-07-12T08:46:51;24.60;99.90
6581;DHT22;3324;50.796;7.228;2022-07-12T08:49:18;24.70;99.90
6581;DHT22;3324;50.796;7.228;2022-07-12T08:51:44;24.80;99.90
6581;DHT22;3324;50.796;7.228;2022-07-12T08:54:12;24.90;99.90
6581;DHT22;3324;50.796;7.228;2022-07-12T08:56:40;24.90;99.90
6581;DHT22;3324;50.796;7.228;2022-07-12T09:01:49;25.00;99.90
6581;DHT22;3324;50.796;7.228;2022-07-12T09:04:16;25.20;99.90
6581;DHT22;3324;50.796;7.228;2022-07-12T09:06:42;25.30;99.90
6581;DHT22;3324;50.796;7.228;2022-07-12T09:09:08;25.50;99.90
6581;DHT22;3324;50.796;7.228;2022-07-12T09:11:38;25.70;99.90
6581;DHT22;3324;50.796;7.228;2022-07-12T09:14:04;25.80;99.90
6581;DHT22;3324;50.796;7.228;2022-07-12T09:16:30;25.90;99.90
6581;DHT22;3324;50.796;7.228;2022-07-12T09:19:16;26.00;99.90
6581;DHT22;3324;50.796;7.228;2022-07-12T09:21:53;26.10;99.90
6581;DHT22;3324;50.796;7.228;2022-07-12T09:24:20;26.10;99.90
6581;DHT22;3324;50.796;7.228;2022-07-12T09:26:48;26.20;99.90
6581;DHT22;3324;50.796;7.228;2022-07-12T09:29:18;26.30;99.90
6581;DHT22;3324;50.796;7.228;2022-07-12T09:31:47;26.40;99.90
6581;DHT22;3324;50.796;7.228;2022-07-12T09:34:31;26.40;99.90
6581;DHT22;3324;50.796;7.228;2022-07-12T09:37:15;26.50;99.90
6581;DHT22;3324;50.796;7.228;2022-07-12T09:39:41;26.70;99.90
6581;DHT22;3324;50.796;7.228;2022-07-12T09:42:08;26.80;99.90
6581;DHT22;3324;50.796;7.228;2022-07-12T09:44:41;26.90;99.90
6581;DHT22;3324;50.796;7.228;2022-07-12T09:47:11;26.90;99.90
6581;DHT22;3324;50.796;7.228;2022-07-12T09:49:44;27.00;99.90
6581;DHT22;3324;50.796;7.228;2022-07-12T09:52:20;27.00;99.90
6581;DHT22;3324;50.796;7.228;2022-07-12T09:54:46;27.20;99.90
6581;DHT22;3324;50.796;7.228;2022-07-12T09:59:47;27.20;98.80
6581;DHT22;3324;50.796;7.228;2022-07-12T10:02:14;27.20;99.90
6581;DHT22;3324;50.796;7.228;2022-07-12T10:04:41;27.10;97.80
6581;DHT22;3324;50.796;7.228;2022-07-12T10:07:08;27.10;97.70
6581;DHT22;3324;50.796;7.228;2022-07-12T10:09:35;27.20;99.40
6581;DHT22;3324;50.796;7.228;2022-07-12T10:12:02;27.30;98.30
6581;DHT22;3324;50.796;7.228;2022-07-12T10:14:29;27.40;98.00
6581;DHT22;3324;50.796;7.228;2022-07-12T10:16:56;27.50;97.50
6581;DHT22;3324;50.796;7.228;2022-07-12T10:19:29;27.50;96.20
6581;DHT22;3324;50.796;7.228;2022-07-12T10:22:02;27.50;98.30
6581;DHT22;3324;50.796;7.228;2022-07-12T10:24:49;27.70;97.20
6581;DHT22;3324;50.796;7.228;2022-07-12T10:29:43;28.00;95.10
6581;DHT22;3324;50.796;7.228;2022-07-12T10:32:32;28.00;93.00
6581;DHT22;3324;50.796;7.228;2022-07-12T10:34:59;27.90;94.50
6581;DHT22;3324;50.796;7.228;2022-07-12T10:37:26;27.90;93.60
6581;DHT22;3324;50.796;7.228;2022-07-12T10:40:17;28.00;95.00
6581;DHT22;3324;50.796;7.228;2022-07-12T10:45:32;28.20;94.00
6581;DHT22;3324;50.796;7.228;2022-07-12T10:48:00;28.30;92.70
6581;DHT22;3324;50.796;7.228;2022-07-12T10:53:26;28.50;91.80
6581;DHT22;3324;50.796;7.228;2022-07-12T10:58:46;28.60;93.00
6581;DHT22;3324;50.796;7.228;2022-07-12T11:01:17;28.60;90.50
6581;DHT22;3324;50.796;7.228;2022-07-12T11:03:48;28.80;90.40
6581;DHT22;3324;50.796;7.228;2022-07-12T11:06:19;29.00;89.00
6581;DHT22;3324;50.796;7.228;2022-07-12T11:11:15;29.00;89.50
6581;DHT22;3324;50.796;7.228;2022-07-12T11:13:41;29.10;90.20
6581;DHT22;3324;50.796;7.228;2022-07-12T11:16:06;29.00;86.80
6581;DHT22;3324;50.796;7.228;2022-07-12T11:18:33;28.80;88.30
6581;DHT22;3324;50.796;7.228;2022-07-12T11:21:00;28.60;87.10
6581;DHT22;3324;50.796;7.228;2022-07-12T11:23:27;28.80;89.50
6581;DHT22;3324;50.796;7.228;2022-07-12T11:25:57;28.90;88.70
6581;DHT22;3324;50.796;7.228;2022-07-12T11:28:32;29.00;89.70
6581;DHT22;3324;50.796;7.228;2022-07-12T11:31:10;29.00;89.00
6581;DHT22;3324;50.796;7.228;2022-07-12T11:33:39;29.10;87.00
6581;DHT22;3324;50.796;7.228;2022-07-12T11:36:06;29.10;86.50
6581;DHT22;3324;50.796;7.228;2022-07-12T11:38:34;29.20;89.80
6581;DHT22;3324;50.796;7.228;2022-07-12T11:41:02;29.40;88.00
6581;DHT22;3324;50.796;7.228;2022-07-12T11:43:29;29.40;84.60
6581;DHT22;3324;50.796;7.228;2022-07-12T11:45:55;29.50;86.60
6581;DHT22;3324;50.796;7.228;2022-07-12T11:48:21;29.60;83.20
6581;DHT22;3324;50.796;7.228;2022-07-12T11:50:49;29.60;84.00
6581;DHT22;3324;50.796;7.228;2022-07-12T11:53:20;29.90;85.70
6581;DHT22;3324;50.796;7.228;2022-07-12T11:55:47;30.00;83.50
6581;DHT22;3324;50.796;7.228;2022-07-12T11:58:15;30.10;80.00
6581;DHT22;3324;50.796;7.228;2022-07-12T12:00:41;30.10;82.30
6581;DHT22;3324;50.796;7.228;2022-07-12T12:03:07;30.20;79.10
6581;DHT22;3324;50.796;7.228;2022-07-12T12:05:34;30.30;79.30
6581;DHT22;3324;50.796;7.228;2022-07-12T12:08:00;30.30;79.40
6581;DHT22;3324;50.796;7.228;2022-07-12T12:10:26;30.40;79.20
6581;DHT22;3324;50.796;7.228;2022-07-12T12:12:54;30.30;77.20
6581;DHT22;3324;50.796;7.228;2022-07-12T12:15:28;30.30;75.80
6581;DHT22;3324;50.796;7.228;2022-07-12T12:20:22;30.20;75.70
6581;DHT22;3324;50.796;7.228;2022-07-12T12:22:50;30.30;76.00
6581;DHT22;3324;50.796;7.228;2022-07-12T12:25:18;30.30;75.20
6581;DHT22;3324;50.796;7.228;2022-07-12T12:30:11;30.40;77.10
6581;DHT22;3324;50.796;7.228;2022-07-12T12:33:03;30.40;74.50
6581;DHT22;3324;50.796;7.228;2022-07-12T12:35:36;30.50;73.40
6581;DHT22;3324;50.796;7.228;2022-07-12T12:38:10;30.40;74.00
6581;DHT22;3324;50.796;7.228;2022-07-12T12:40:36;30.40;77.60
6581;DHT22;3324;50.796;7.228;2022-07-12T12:43:10;30.40;80.20
6581;DHT22;3324;50.796;7.228;2022-07-12T12:45:49;30.50;77.30
6581;DHT22;3324;50.796;7.228;2022-07-12T12:48:25;30.60;76.40
6581;DHT22;3324;50.796;7.228;2022-07-12T12:50:53;30.70;73.90
6581;DHT22;3324;50.796;7.228;2022-07-12T12:53:24;30.80;74.00
6581;DHT22;3324;50.796;7.228;2022-07-12T12:55:55;30.70;73.70
6581;DHT22;3324;50.796;7.228;2022-07-12T12:58:23;30.90;72.60
6581;DHT22;3324;50.796;7.228;2022-07-12T13:00:50;31.10;70.20
6581;DHT22;3324;50.796;7.228;2022-07-12T13:03:18;31.20;71.40
6581;DHT22;3324;50.796;7.228;2022-07-12T13:05:44;31.30;68.50
6581;DHT22;3324;50.796;7.228;2022-07-12T13:08:11;31.50;70.00
6581;DHT22;3324;50.796;7.228;2022-07-12T13:10:38;31.50;67.50
6581;DHT22;3324;50.796;7.228;2022-07-12T13:13:05;31.50;69.00
6581;DHT22;3324;50.796;7.228;2022-07-12T13:15:31;31.50;67.60
6581;DHT22;3324;50.796;7.228;2022-07-12T13:17:57;31.50;66.80
6581;DHT22;3324;50.796;7.228;2022-07-12T13:20:24;31.50;65.90
6581;DHT22;3324;50.796;7.228;2022-07-12T13:22:50;31.60;64.50
6581;DHT22;3324;50.796;7.228;2022-07-12T13:25:16;31.50;65.10
6581;DHT22;3324;50.796;7.228;2022-07-12T13:27:42;31.40;65.20
6581;DHT22;3324;50.796;7.228;2022-07-12T13:30:11;31.10;64.60
6581;DHT22;3324;50.796;7.228;2022-07-12T13:32:37;31.20;64.70
6581;DHT22;3324;50.796;7.228;2022-07-12T13:35:04;31.00;64.50
6581;DHT22;3324;50.796;7.228;2022-07-12T13:37:30;31.00;64.80
6581;DHT22;3324;50.796;7.228;2022-07-12T13:39:56;30.90;65.90
6581;DHT22;3324;50.796;7.228;2022-07-12T13:45:12;31.00;65.00
6581;DHT22;3324;50.796;7.228;2022-07-12T13:47:38;30.80;65.30
6581;DHT22;3324;50.796;7.228;2022-07-12T13:50:05;30.80;66.30
6581;DHT22;3324;50.796;7.228;2022-07-12T13:52:31;30.70;68.10
6581;DHT22;3324;50.796;7.228;2022-07-12T13:54:57;30.70;65.40
6581;DHT22;3324;50.796;7.228;2022-07-12T13:57:23;30.60;66.00
6581;DHT22;3324;50.796;7.228;2022-07-12T13:59:49;30.50;67.60
6581;DHT22;3324;50.796;7.228;2022-07-12T14:02:15;30.40;67.60
6581;DHT22;3324;50.796;7.228;2022-07-12T14:04:41;30.40;65.90
6581;DHT22;3324;50.796;7.228;2022-07-12T14:07:06;30.40;68.40
6581;DHT22;3324;50.796;7.228;2022-07-12T14:09:32;30.40;67.30
6581;DHT22;3324;50.796;7.228;2022-07-12T14:11:57;30.40;69.20
6581;DHT22;3324;50.796;7.228;2022-07-12T14:14:23;30.40;68.00
6581;DHT22;3324;50.796;7.228;2022-07-12T14:17:08;30.40;66.80
6581;DHT22;3324;50.796;7.228;2022-07-12T14:19:34;30.30;66.50
6581;DHT22;3324;50.796;7.228;2022-07-12T14:21:59;30.10;68.20
6581;DHT22;3324;50.796;7.228;2022-07-12T14:24:25;30.10;66.30
6581;DHT22;3324;50.796;7.228;2022-07-12T14:26:50;30.10;65.00
6581;DHT22;3324;50.796;7.228;2022-07-12T14:29:16;30.10;66.00
6581;DHT22;3324;50.796;7.228;2022-07-12T14:31:42;30.10;67.10
6581;DHT22;3324;50.796;7.228;2022-07-12T14:34:07;30.00;67.80
6581;DHT22;3324;50.796;7.228;2022-07-12T14:36:33;30.00;67.90
6581;DHT22;3324;50.796;7.228;2022-07-12T14:38:59;30.00;66.80
6581;DHT22;3324;50.796;7.228;2022-07-12T14:41:24;29.90;65.40
6581;DHT22;3324;50.796;7.228;2022-07-12T14:43:50;29.90;68.60
6581;DHT22;3324;50.796;7.228;2022-07-12T14:46:16;29.80;65.30
6581;DHT22;3324;50.796;7.228;2022-07-12T14:48:42;29.80;66.90
6581;DHT22;3324;50.796;7.228;2022-07-12T14:51:09;29.80;69.30
6581;DHT22;3324;50.796;7.228;2022-07-12T14:53:34;29.90;64.00
6581;DHT22;3324;50.796;7.228;2022-07-12T14:56:00;29.90;65.20
6581;DHT22;3324;50.796;7.228;2022-07-12T14:58:26;29.80;64.90
6581;DHT22;3324;50.796;7.228;2022-07-12T15:00:54;29.70;64.40
6581;DHT22;3324;50.796;7.228;2022-07-12T15:03:20;29.70;66.90
6581;DHT22;3324;50.796;7.228;2022-07-12T15:05:45;29.70;66.60
6581;DHT22;3324;50.796;7.228;2022-07-12T15:08:12;29.60;65.80
6581;DHT22;3324;50.796;7.228;2022-07-12T15:10:37;29.50;66.50
6581;DHT22;3324;50.796;7.228;2022-07-12T15:13:03;29.40;66.60
6581;DHT22;3324;50.796;7.228;2022-07-12T15:15:29;29.30;64.50
6581;DHT22;3324;50.796;7.228;2022-07-12T15:17:54;29.40;66.40
6581;DHT22;3324;50.796;7.228;2022-07-12T15:20:20;29.40;68.00
6581;DHT22;3324;50.796;7.228;2022-07-12T15:22:46;29.30;68.20
6581;DHT22;3324;50.796;7.228;2022-07-12T15:25:11;29.30;70.90
6581;DHT22;3324;50.796;7.228;2022-07-12T15:27:37;29.20;68.90
6581;DHT22;3324;50.796;7.228;2022-07-12T15:30:03;29.10;71.50
6581;DHT22;3324;50.796;7.228;2022-07-12T15:32:29;29.00;71.40
6581;DHT22;3324;50.796;7.228;2022-07-12T15:34:54;29.00;71.80
6581;DHT22;3324;50.796;7.228;2022-07-12T15:37:22;28.80;71.10
6581;DHT22;3324;50.796;7.228;2022-07-12T15:39:47;28.90;70.70
6581;DHT22;3324;50.796;7.228;2022-07-12T15:42:13;28.70;71.10
6581;DHT22;3324;50.796;7.228;2022-07-12T15:44:39;28.70;70.70
6581;DHT22;3324;50.796;7.228;2022-07-12T15:47:05;28.90;72.20
6581;DHT22;3324;50.796;7.228;2022-07-12T15:49:31;28.90;71.20
6581;DHT22;3324;50.796;7.228;2022-07-12T15:51:57;28.80;72.50
6581;DHT22;3324;50.796;7.228;2022-07-12T15:54:41;28.70;72.00
6581;DHT22;3324;50.796;7.228;2022-07-12T15:57:07;28.70;73.20
6581;DHT22;3324;50.796;7.228;2022-07-12T15:59:33;28.70;72.70
6581;DHT22;3324;50.796;7.228;2022-07-12T16:01:59;28.70;69.00
6581;DHT22;3324;50.796;7.228;2022-07-12T16:04:25;28.60;70.00
6581;DHT22;3324;50.796;7.228;2022-07-12T16:06:51;28.60;70.70
6581;DHT22;3324;50.796;7.228;2022-07-12T16:09:18;28.60;68.30
6581;DHT22;3324;50.796;7.228;2022-07-12T16:11:44;28.70;72.30
6581;DHT22;3324;50.796;7.228;2022-07-12T16:14:10;28.60;70.10
6581;DHT22;3324;50.796;7.228;2022-07-12T16:16:35;28.60;69.80
6581;DHT22;3324;50.796;7.228;2022-07-12T16:19:02;28.60;71.10
6581;DHT22;3324;50.796;7.228;2022-07-12T16:21:28;28.60;69.60
6581;DHT22;3324;50.796;7.228;2022-07-12T16:23:54;28.60;68.00
6581;DHT22;3324;50.796;7.228;2022-07-12T16:26:19;28.50;67.90
6581;DHT22;3324;50.796;7.228;2022-07-12T16:28:45;28.50;68.50